Pagina principală
METAR-TAF:

METAR-TAF

Aeroporturi :

Edson, Alberta, Canada

Latitudine: 53-35N, longitudine: 116-28W, elevație: 921 m

Observații meteo curente

Raportul a fost făcut în urmă cu 33 de minute, la 22:00 UTC
Vânt 3 kt de la Sud/Sud-est cu rafale de până la 15 kt, variabil între Est și Vest
Temperatură 26°C
Umiditate 21%
Presiune 1008 hPa
Vizibilitate: 14.5 km
Nori puțini la o înălțime de 11000 picior

METAR: CYET 222200Z AUTO 15003G15KT 100V260 9SM FEW110 26/02 A2977 RMK SLP085 DENSITY ALT 5200FT

Ora: 16:33 (22:33 UTC)


TAF: lipsă

Observații și prognoze meteo pentru peste 4.000 de aeroporturi (rapoarte METAR și TAF).

Stațiile disponibile sunt reprezentate pe hartă prin puncte galbene și roșii.

Țineți indicatorul mouse-ului pe punctul dorit pentru a vedea denumirea stației.

Apoi, faceți clic pentru a vedea observațiile și prognozele meteorologice.

Pentru a schimba harta: Pentru mărire, faceți clic pe butoanele verzi cu cruce neagră; pentru micșorare, pe butonul verde cu o liniuță; pentru hărți învecinate, pe săgețile verzi.


METAR-TAF: